Time;durP1;ratioP1;P1;durP2;ratioP2;P2;SDS_P1;SDS_P2;PMS_P1;PMS_P2;Temp;Humidity;BMP_temperature;BMP_pressure;BME280_temperature;BME280_humidity;BME280_pressure;Samples;Min_cycle;Max_cycle;Signal;HPM_P1;HPM_P2
2021/01/18 00:00:16;;;;;;;20.13;12.38;;;;;;;0.14;48.96;93818.41;4965630;28;20038;-81
2021/01/18 00:02:42;;;;;;;18.90;12.30;;;;;;;0.10;48.75;93815.47;4966036;28;20053;-82
2021/01/18 00:05:08;;;;;;;20.45;13.82;;;;;;;0.11;49.08;93818.84;4966296;28;20046;-82
2021/01/18 00:07:51;;;;;;;18.83;12.13;;;;;;;0.06;49.30;93826.53;4970081;28;20027;-82
2021/01/18 00:10:19;;;;;;;20.17;12.65;;;;;;;0.03;49.42;93827.78;4967085;28;20100;-82
2021/01/18 00:12:49;;;;;;;17.92;12.07;;;;;;;-0.05;49.25;93807.31;4966056;28;20069;-82
2021/01/18 00:15:16;;;;;;;20.70;13.25;;;;;;;0.07;49.15;93822.91;4964973;28;20060;-81
2021/01/18 00:17:42;;;;;;;22.17;13.85;;;;;;;0.02;49.51;93833.97;4966151;28;20043;-82
2021/01/18 00:20:09;;;;;;;21.45;12.77;;;;;;;-0.02;49.42;93835.44;4968730;28;20050;-80
2021/01/18 00:22:42;;;;;;;20.27;13.02;;;;;;;-0.06;49.64;93836.91;4963114;28;20022;-80
2021/01/18 00:25:10;;;;;;;17.25;12.60;;;;;;;-0.03;49.61;93839.84;4969746;28;20039;-80
2021/01/18 00:27:37;;;;;;;17.35;12.32;;;;;;;-0.19;49.72;93834.47;4966827;28;20130;-81
2021/01/18 00:30:16;;;;;;;21.92;12.23;;;;;;;-0.24;49.75;93847.31;4981201;28;20691;-81
2021/01/18 00:32:42;;;;;;;20.60;12.98;;;;;;;-0.20;49.89;93846.69;4962955;28;20110;-81
2021/01/18 00:35:09;;;;;;;20.52;12.70;;;;;;;-0.29;50.27;93853.19;4969068;28;20447;-81
2021/01/18 00:37:45;;;;;;;18.98;12.52;;;;;;;-0.25;50.35;93856.16;4968157;28;20073;-81
2021/01/18 00:40:13;;;;;;;19.02;12.70;;;;;;;-0.37;50.27;93837.13;4968884;28;20050;-81
2021/01/18 00:42:42;;;;;;;18.38;11.32;;;;;;;-0.27;50.08;93858.16;4966370;28;20173;-81
2021/01/18 00:45:09;;;;;;;20.25;12.85;;;;;;;-0.30;50.32;93854.22;4964757;28;20077;-81
2021/01/18 00:47:58;;;;;;;19.30;11.77;;;;;;;-0.23;50.16;93861.91;4965671;28;20675;-81
2021/01/18 00:50:28;;;;;;;17.13;12.10;;;;;;;-0.24;50.21;93865.50;4964502;28;20061;-80
2021/01/18 00:52:55;;;;;;;20.92;12.27;;;;;;;-0.24;49.96;93866.31;4963208;28;20031;-80
2021/01/18 00:55:23;;;;;;;18.00;12.00;;;;;;;-0.25;50.32;93866.53;4972182;28;20049;-81
2021/01/18 00:57:49;;;;;;;19.88;13.70;;;;;;;-0.28;50.34;93859.19;4966537;28;20054;-81
2021/01/18 01:00:20;;;;;;;20.02;13.50;;;;;;;-0.33;50.47;93870.22;4963707;28;20693;-81
2021/01/18 01:02:48;;;;;;;18.33;12.90;;;;;;;-0.30;50.56;93875.00;4966537;28;20093;-81
2021/01/18 01:05:16;;;;;;;23.63;12.90;;;;;;;-0.29;50.07;93868.00;4964886;28;20407;-82
2021/01/18 01:07:44;;;;;;;23.45;14.77;;;;;;;-0.28;50.07;93869.56;4963096;28;20027;-81
2021/01/18 01:10:14;;;;;;;20.50;13.35;;;;;;;-0.33;50.08;93859.03;4967646;28;20501;-79
2021/01/18 01:12:40;;;;;;;22.02;13.77;;;;;;;-0.41;50.36;93856.75;4965427;28;20042;-79
2021/01/18 01:15:08;;;;;;;22.67;14.13;;;;;;;-0.53;50.33;93841.91;4965015;28;20042;-82
2021/01/18 01:17:44;;;;;;;21.55;14.35;;;;;;;-0.51;50.50;93858.06;4965709;28;20058;-81
2021/01/18 01:20:11;;;;;;;21.42;13.55;;;;;;;-0.57;50.73;93852.97;4971431;28;20045;-79
2021/01/18 01:22:38;;;;;;;26.00;17.02;;;;;;;-0.61;51.00;93863.00;4963576;28;20031;-81
2021/01/18 01:25:07;;;;;;;28.85;16.27;;;;;;;-0.57;50.87;93879.72;4973768;28;20054;-80
2021/01/18 01:27:33;;;;;;;27.35;15.77;;;;;;;-0.62;50.93;93876.97;4967585;28;20054;-81
2021/01/18 01:29:59;;;;;;;25.77;15.80;;;;;;;-0.62;50.99;93881.38;4972284;28;20085;-80
2021/01/18 01:32:24;;;;;;;22.27;13.85;;;;;;;-0.62;51.10;93874.38;4966183;28;20054;-80
2021/01/18 01:34:50;;;;;;;26.67;16.90;;;;;;;-0.72;51.21;93866.31;4967381;28;20039;-82
2021/01/18 01:37:15;;;;;;;23.92;15.43;;;;;;;-0.77;51.01;93867.97;4969142;28;20026;-80
2021/01/18 01:39:41;;;;;;;26.02;15.18;;;;;;;-0.84;51.00;93857.69;4968449;28;20595;-81
2021/01/18 01:42:17;;;;;;;22.70;14.75;;;;;;;-0.87;50.81;93850.31;4968785;28;20051;-82
2021/01/18 01:44:43;;;;;;;23.50;14.93;;;;;;;-0.81;50.78;93866.81;4970167;28;20411;-82
2021/01/18 01:47:08;;;;;;;23.17;15.93;;;;;;;-0.84;50.63;93860.28;4967537;28;20041;-81
2021/01/18 01:49:34;;;;;;;24.58;14.63;;;;;;;-0.80;50.54;93869.22;4967759;28;20018;-81
2021/01/18 01:52:02;;;;;;;25.75;15.45;;;;;;;-0.87;50.13;93861.50;4969871;28;20038;-81
2021/01/18 01:54:28;;;;;;;27.38;15.07;;;;;;;-0.91;49.95;93864.72;4968694;28;20123;-78
2021/01/18 01:56:54;;;;;;;27.60;15.90;;;;;;;-1.05;50.58;93869.28;4967814;28;20509;-81
2021/01/18 01:59:20;;;;;;;22.55;14.43;;;;;;;-1.07;50.92;93865.31;4965357;28;20046;-81
2021/01/18 02:01:46;;;;;;;20.30;13.00;;;;;;;-1.06;51.13;93865.09;4966431;28;20023;-81
2021/01/18 02:04:13;;;;;;;20.98;13.35;;;;;;;-1.03;51.42;93863.88;4968042;28;20018;-81
2021/01/18 02:06:39;;;;;;;17.65;12.52;;;;;;;-0.92;51.02;93881.31;4971300;28;20122;-80
2021/01/18 02:09:04;;;;;;;19.83;13.20;;;;;;;-0.96;51.52;93877.56;4964099;28;20042;-79
2021/01/18 02:11:30;;;;;;;25.42;15.05;;;;;;;-1.05;51.99;93871.88;4982942;28;20113;-81
2021/01/18 02:14:09;;;;;;;23.20;15.00;;;;;;;-0.95;52.22;93886.94;4960366;28;27342;-78
2021/01/18 02:16:47;;;;;;;22.05;14.38;;;;;;;-0.99;52.23;93888.38;4970092;28;20093;-80
2021/01/18 02:19:32;;;;;;;23.88;14.82;;;;;;;-1.00;52.29;93891.97;4965964;28;20053;-80
2021/01/18 02:22:34;;;;;;;21.52;14.55;;;;;;;-0.93;51.99;93890.88;4965609;28;20777;-80
2021/01/18 02:25:18;;;;;;;25.52;14.82;;;;;;;-1.10;52.07;93900.25;4969047;28;20150;-79
2021/01/18 02:27:59;;;;;;;20.90;13.70;;;;;;;-1.20;52.52;93888.78;4981516;28;20558;-81
2021/01/18 02:30:43;;;;;;;25.13;14.52;;;;;;;-1.18;52.52;93886.78;4980788;28;20094;-80
2021/01/18 02:33:45;;;;;;;22.58;13.40;;;;;;;-1.09;52.79;93888.06;4978080;28;20582;-81
2021/01/18 02:36:17;;;;;;;21.08;13.02;;;;;;;-1.15;52.35;93884.53;4967245;28;20069;-81
2021/01/18 02:38:42;;;;;;;21.88;13.85;;;;;;;-1.08;51.98;93887.88;4961288;28;20508;-80
2021/01/18 02:41:36;;;;;;;33.50;17.52;;;;;;;-1.05;52.03;93884.84;4970498;28;20057;-82
2021/01/18 02:44:06;;;;;;;31.88;18.55;;;;;;;-1.03;52.12;93882.84;4960373;28;20089;-80
2021/01/18 02:46:33;;;;;;;27.45;15.65;;;;;;;-1.02;52.13;93879.22;4965965;28;20042;-81
2021/01/18 02:49:02;;;;;;;29.63;15.85;;;;;;;-1.03;51.94;93869.06;4964403;28;20066;-81
2021/01/18 02:51:29;;;;;;;31.63;16.60;;;;;;;-0.89;52.02;93883.47;4969632;28;20085;-81
2021/01/18 02:53:59;;;;;;;24.70;15.60;;;;;;;-0.91;51.78;93882.91;4963131;28;20763;-81
2021/01/18 02:56:26;;;;;;;23.67;14.88;;;;;;;-0.88;52.24;93874.69;4965905;28;20578;-82
2021/01/18 02:58:53;;;;;;;23.20;14.80;;;;;;;-0.80;51.74;93882.19;4962678;28;20380;-81
2021/01/18 03:01:45;;;;;;;23.70;14.60;;;;;;;-0.80;51.79;93895.16;4971603;28;20030;-81
2021/01/18 03:04:49;;;;;;;21.88;14.45;;;;;;;-0.77;51.85;93893.91;4953116;28;20053;-80
2021/01/18 03:07:22;;;;;;;23.27;14.77;;;;;;;-0.74;52.05;93890.91;4943366;28;20042;-81
2021/01/18 03:10:07;;;;;;;22.95;14.73;;;;;;;-0.61;51.70;93891.53;4978099;28;20055;-80
2021/01/18 03:13:04;;;;;;;22.70;14.63;;;;;;;-0.68;51.40;93890.81;4968235;28;20074;-79
2021/01/18 03:15:36;;;;;;;23.75;15.85;;;;;;;-0.58;51.42;93887.69;4944706;28;20165;-81
2021/01/18 03:18:02;;;;;;;23.92;14.93;;;;;;;-0.68;51.52;93895.22;4964805;28;20039;-80
2021/01/18 03:20:32;;;;;;;24.50;15.75;;;;;;;-0.68;51.67;93896.00;4967391;28;20157;-81
2021/01/18 03:23:07;;;;;;;26.27;15.95;;;;;;;-0.67;51.67;93895.00;4982716;28;20547;-81
2021/01/18 03:25:49;;;;;;;24.70;16.50;;;;;;;-0.72;51.29;93897.44;4966436;28;20037;-81
2021/01/18 03:28:14;;;;;;;24.90;16.77;;;;;;;-0.74;51.63;93906.47;4969164;28;20034;-81
2021/01/18 03:30:40;;;;;;;25.35;16.45;;;;;;;-0.78;51.70;93894.94;4964486;28;20481;-82
2021/01/18 03:33:05;;;;;;;28.60;16.83;;;;;;;-0.88;51.61;93887.66;4966094;28;20038;-81
2021/01/18 03:35:31;;;;;;;24.95;15.90;;;;;;;-0.78;51.92;93897.53;4968600;28;20037;-81
2021/01/18 03:37:57;;;;;;;28.35;17.33;;;;;;;-0.76;51.86;93882.53;4966153;28;20053;-80
2021/01/18 03:40:24;;;;;;;24.88;16.23;;;;;;;-0.58;51.83;93901.47;4965721;28;20049;-81
2021/01/18 03:43:15;;;;;;;24.92;15.93;;;;;;;-0.55;51.85;93906.25;4965401;28;20051;-81
2021/01/18 03:45:43;;;;;;;31.25;17.08;;;;;;;-0.55;51.52;93898.47;4969648;28;20042;-81
2021/01/18 03:48:10;;;;;;;29.38;19.50;;;;;;;-0.66;52.05;93901.78;4964824;28;20046;-82
2021/01/18 03:50:36;;;;;;;30.63;19.23;;;;;;;-0.56;51.70;93907.25;4968165;28;20054;-82
2021/01/18 03:53:02;;;;;;;30.00;19.00;;;;;;;-0.65;51.66;93905.97;4970821;28;20043;-80
2021/01/18 03:55:28;;;;;;;26.88;17.13;;;;;;;-0.63;52.00;93910.91;4969278;28;20085;-81
2021/01/18 03:57:56;;;;;;;28.90;18.20;;;;;;;-0.66;51.96;93906.19;4974118;28;20039;-81
2021/01/18 04:00:23;;;;;;;29.52;17.77;;;;;;;-0.65;52.28;93897.38;4965985;28;20089;-80
2021/01/18 04:02:51;;;;;;;30.58;18.17;;;;;;;-0.61;52.25;93909.72;4969273;28;20054;-80
2021/01/18 04:05:17;;;;;;;32.05;18.30;;;;;;;-0.50;52.33;93921.97;4967960;28;20400;-81
2021/01/18 04:07:43;;;;;;;28.42;18.60;;;;;;;-0.48;51.89;93917.34;4971638;28;20027;-80
2021/01/18 04:10:09;;;;;;;26.73;19.17;;;;;;;-0.45;52.00;93919.53;4970215;28;20025;-82
2021/01/18 04:12:39;;;;;;;27.60;17.63;;;;;;;-0.41;51.46;93922.47;4969614;28;20046;-80
2021/01/18 04:15:06;;;;;;;26.48;17.70;;;;;;;-0.40;51.30;93931.84;4966366;28;20038;-81
2021/01/18 04:17:31;;;;;;;30.55;18.88;;;;;;;-0.46;51.00;93922.31;4967249;28;20034;-81
2021/01/18 04:19:57;;;;;;;26.60;16.80;;;;;;;-0.50;50.67;93928.97;4966139;28;20088;-81
2021/01/18 04:22:22;;;;;;;25.67;16.42;;;;;;;-0.61;50.26;93935.66;4966776;28;21102;-81
2021/01/18 04:24:48;;;;;;;29.17;16.92;;;;;;;-0.64;50.10;93923.13;4963763;28;20480;-80
2021/01/18 04:27:13;;;;;;;24.88;15.57;;;;;;;-0.74;50.04;93922.84;4967449;28;20035;-81
2021/01/18 04:29:38;;;;;;;26.30;17.08;;;;;;;-0.65;49.70;93925.94;4966957;28;20047;-81
2021/01/18 04:32:04;;;;;;;24.83;16.30;;;;;;;-0.59;49.96;93940.66;4969396;28;20057;-81
2021/01/18 04:34:30;;;;;;;25.42;15.73;;;;;;;-0.53;49.80;93937.16;4968845;28;20026;-81
2021/01/18 04:36:55;;;;;;;25.02;15.27;;;;;;;-0.49;49.41;93939.09;4970725;28;20050;-80
2021/01/18 04:39:21;;;;;;;26.08;17.23;;;;;;;-0.54;49.11;93938.97;4967872;28;20055;-81
2021/01/18 04:41:46;;;;;;;25.02;16.23;;;;;;;-0.58;48.98;93939.63;4967801;28;20062;-80
2021/01/18 04:44:16;;;;;;;27.60;15.82;;;;;;;-0.58;48.65;93934.41;4986950;28;20042;-81
2021/01/18 04:46:46;;;;;;;26.45;16.13;;;;;;;-0.70;48.22;93942.16;4963295;28;20030;-80
2021/01/18 04:49:13;;;;;;;24.92;14.82;;;;;;;-0.69;48.57;93938.56;4968747;28;20029;-81
2021/01/18 04:51:51;;;;;;;25.98;16.15;;;;;;;-0.63;48.57;93948.06;4968049;28;20050;-80
2021/01/18 04:54:20;;;;;;;27.48;16.60;;;;;;;-0.66;48.35;93942.50;4965795;28;20035;-80
2021/01/18 04:57:11;;;;;;;25.02;15.57;;;;;;;-0.64;48.32;93961.25;4964723;28;20047;-81
2021/01/18 04:59:49;;;;;;;22.40;14.80;;;;;;;-0.73;48.34;93942.56;4968343;28;20096;-81
2021/01/18 05:02:22;;;;;;;24.42;14.90;;;;;;;-0.76;47.92;93953.38;4967139;28;20057;-80
2021/01/18 05:04:50;;;;;;;28.15;16.40;;;;;;;-0.77;47.73;93962.16;4966460;28;20026;-80
2021/01/18 05:07:21;;;;;;;22.80;15.20;;;;;;;-0.79;47.45;93959.03;4968062;28;20026;-81
2021/01/18 05:10:11;;;;;;;24.35;14.95;;;;;;;-0.81;47.42;93953.25;4969487;28;20137;-80
2021/01/18 05:12:41;;;;;;;22.23;15.50;;;;;;;-0.86;47.22;93945.31;4959120;28;20132;-80
2021/01/18 05:15:08;;;;;;;23.13;14.75;;;;;;;-0.92;47.27;93952.13;4966072;28;20042;-80
2021/01/18 05:17:44;;;;;;;25.90;15.38;;;;;;;-0.93;47.20;93958.31;4965235;28;20041;-78
2021/01/18 05:20:14;;;;;;;22.83;14.63;;;;;;;-1.04;47.34;93956.47;4966736;28;20058;-77
2021/01/18 05:22:42;;;;;;;22.42;15.45;;;;;;;-1.05;47.89;93962.66;4964343;28;20018;-80
2021/01/18 05:25:09;;;;;;;25.27;15.18;;;;;;;-1.12;47.66;93964.50;4967385;28;20030;-81
2021/01/18 05:28:04;;;;;;;24.13;15.15;;;;;;;-1.17;47.59;93971.34;4970009;28;20391;-81
2021/01/18 05:30:41;;;;;;;23.17;15.77;;;;;;;-1.19;47.70;93970.75;4965484;28;20051;-80
2021/01/18 05:33:12;;;;;;;34.67;18.60;;;;;;;-1.27;48.11;93971.78;4965575;28;20126;-81
2021/01/18 05:35:46;;;;;;;24.48;16.00;;;;;;;-1.32;47.99;93972.44;4965690;28;20034;-81
2021/01/18 05:38:12;;;;;;;30.42;17.10;;;;;;;-1.27;48.34;93971.78;4967969;28;20130;-80
2021/01/18 05:40:40;;;;;;;35.88;21.13;;;;;;;-1.30;48.51;93977.41;4964931;28;20036;-80
2021/01/18 05:43:07;;;;;;;90.63;46.80;;;;;;;-1.50;49.47;93984.53;4968027;28;20022;-80
2021/01/18 05:45:38;;;;;;;77.93;40.85;;;;;;;-1.46;49.67;93988.28;4963714;28;20141;-77
2021/01/18 05:48:05;;;;;;;38.75;23.70;;;;;;;-1.41;49.59;93976.28;4967580;28;20022;-80
2021/01/18 05:50:32;;;;;;;31.52;17.67;;;;;;;-1.37;49.35;93976.69;4968423;28;20038;-81
2021/01/18 05:52:59;;;;;;;26.85;16.50;;;;;;;-1.34;49.31;93982.22;4961278;28;20042;-79
2021/01/18 05:55:30;;;;;;;28.95;17.85;;;;;;;-1.38;49.50;93994.03;4968022;28;20035;-79
2021/01/18 05:58:00;;;;;;;29.38;16.70;;;;;;;-1.36;49.37;93997.19;4966251;28;20046;-81
2021/01/18 06:00:31;;;;;;;29.88;17.25;;;;;;;-1.36;49.82;93993.81;4961755;28;20177;-81
2021/01/18 06:02:58;;;;;;;29.95;18.38;;;;;;;-1.40;50.23;93993.44;4964247;28;20080;-80
2021/01/18 06:05:29;;;;;;;29.65;18.73;;;;;;;-1.32;50.21;93990.56;4963690;28;20882;-82
2021/01/18 06:08:06;;;;;;;26.13;15.70;;;;;;;-1.33;49.52;93999.38;4961246;28;20027;-80
2021/01/18 06:10:33;;;;;;;30.05;17.10;;;;;;;-1.30;49.77;93987.78;4964957;28;20084;-79
2021/01/18 06:12:59;;;;;;;38.22;22.45;;;;;;;-1.27;49.83;93989.94;4966518;28;20053;-81
2021/01/18 06:15:26;;;;;;;68.35;33.63;;;;;;;-1.23;49.43;93992.94;4965376;28;20109;-80
2021/01/18 06:17:55;;;;;;;33.13;21.00;;;;;;;-1.25;48.80;93985.34;4966062;28;20105;-80
2021/01/18 06:20:25;;;;;;;25.17;15.30;;;;;;;-1.13;49.05;93988.06;4968404;28;20499;-80
2021/01/18 06:22:53;;;;;;;26.70;16.70;;;;;;;-1.07;48.49;93982.81;4966315;28;20096;-81
2021/01/18 06:25:19;;;;;;;29.30;17.48;;;;;;;-0.94;47.84;93987.91;4933613;28;20057;-78
2021/01/18 06:27:45;;;;;;;27.70;15.90;;;;;;;-0.85;47.58;93991.00;4972721;28;20092;-81
2021/01/18 06:30:31;;;;;;;28.13;16.30;;;;;;;-0.79;46.93;93963.41;4961235;28;20050;-80
2021/01/18 06:33:10;;;;;;;24.50;17.60;;;;;;;-0.63;46.33;93989.56;4958699;28;20510;-80
2021/01/18 06:35:35;;;;;;;34.70;19.67;;;;;;;-0.63;46.26;93989.56;4968051;28;20038;-80
2021/01/18 06:38:07;;;;;;;27.83;16.95;;;;;;;-0.63;46.37;93979.19;4964344;28;20046;-81
2021/01/18 06:40:39;;;;;;;27.70;18.10;;;;;;;-0.52;46.57;93990.66;4961820;28;20126;-80
2021/01/18 06:43:09;;;;;;;28.73;16.33;;;;;;;-0.50;45.75;93999.84;4964671;28;20137;-81
2021/01/18 06:45:40;;;;;;;26.02;15.93;;;;;;;-0.49;45.52;94004.00;4964176;28;20043;-80
2021/01/18 06:48:07;;;;;;;23.20;16.90;;;;;;;-0.33;45.26;94020.03;4964325;28;20778;-81
2021/01/18 06:50:38;;;;;;;27.38;17.27;;;;;;;-0.16;45.28;94013.25;4969375;28;20140;-80
2021/01/18 06:53:21;;;;;;;20.08;12.82;;;;;;;-0.14;43.60;94014.63;4965872;28;20479;-81
2021/01/18 06:56:25;;;;;;;21.25;12.93;;;;;;;-0.10;43.40;94020.19;4963850;28;20113;-81
2021/01/18 06:59:39;;;;;;;22.77;13.50;;;;;;;0.01;43.07;94027.25;4965400;28;20130;-81
2021/01/18 07:02:13;;;;;;;20.58;14.55;;;;;;;0.09;43.01;94029.56;4965304;28;20045;-81
2021/01/18 07:04:45;;;;;;;19.85;12.70;;;;;;;0.10;42.14;94020.72;4959227;28;20047;-81
2021/01/18 07:07:23;;;;;;;20.58;13.20;;;;;;;0.09;42.15;94026.97;4960712;28;20049;-79
2021/01/18 07:09:55;;;;;;;21.73;13.88;;;;;;;0.05;42.37;94035.41;4974869;28;20049;-79
2021/01/18 07:12:23;;;;;;;20.73;13.25;;;;;;;0.05;42.31;94028.38;4953136;28;20098;-80
2021/01/18 07:15:00;;;;;;;19.05;12.10;;;;;;;-0.10;42.51;94020.97;4958156;28;20049;-80
2021/01/18 07:17:58;;;;;;;18.45;12.57;;;;;;;-0.10;42.82;94022.78;4981111;28;20038;-80
2021/01/18 07:20:28;;;;;;;18.02;12.10;;;;;;;-0.14;42.66;94032.00;4950018;28;20042;-82
2021/01/18 07:23:15;;;;;;;20.80;12.63;;;;;;;-0.17;42.25;94035.84;4977345;28;20042;-79
2021/01/18 07:25:41;;;;;;;17.50;11.65;;;;;;;-0.17;42.45;94040.25;4962768;28;20499;-79
2021/01/18 07:28:08;;;;;;;16.27;11.05;;;;;;;-0.11;42.45;94039.38;4969626;28;20094;-80
2021/01/18 07:30:36;;;;;;;21.15;14.10;;;;;;;-0.21;42.61;94029.50;4962762;28;20047;-81
2021/01/18 07:33:13;;;;;;;21.63;12.82;;;;;;;-0.15;43.18;94041.63;4965958;28;20099;-83
2021/01/18 07:35:42;;;;;;;21.55;12.82;;;;;;;-0.03;42.54;94049.47;4967437;28;20033;-82
2021/01/18 07:38:26;;;;;;;19.80;12.45;;;;;;;-0.03;42.83;94046.88;4970994;28;20039;-81
2021/01/18 07:41:07;;;;;;;17.77;11.07;;;;;;;-0.01;43.15;94058.66;4963459;28;20047;-81
2021/01/18 07:43:36;;;;;;;20.42;12.80;;;;;;;0.02;43.13;94069.59;4961513;28;20515;-82
2021/01/18 07:46:24;;;;;;;25.83;15.98;;;;;;;0.03;43.44;94060.81;4977380;28;20039;-82
2021/01/18 07:48:53;;;;;;;21.67;13.18;;;;;;;0.08;43.08;94064.34;4962526;28;20065;-82
2021/01/18 07:51:22;;;;;;;18.85;11.55;;;;;;;0.16;43.22;94066.63;4964803;28;20039;-81
2021/01/18 07:53:48;;;;;;;15.35;10.88;;;;;;;0.21;43.39;94058.19;4963095;28;20029;-81
2021/01/18 07:56:28;;;;;;;18.27;12.27;;;;;;;0.33;43.41;94066.84;4967028;28;20379;-81
2021/01/18 07:59:08;;;;;;;19.08;11.05;;;;;;;0.43;43.69;94067.91;4962538;28;20046;-82
2021/01/18 08:01:38;;;;;;;24.23;13.68;;;;;;;0.68;43.27;94069.59;4963821;28;20093;-81
2021/01/18 08:04:17;;;;;;;21.30;13.23;;;;;;;0.89;42.70;94066.47;4964903;28;20038;-83
2021/01/18 08:07:05;;;;;;;25.30;15.13;;;;;;;1.21;42.83;94080.81;4968060;28;20149;-82
2021/01/18 08:09:31;;;;;;;19.90;12.43;;;;;;;1.12;42.75;94066.56;4966093;28;20462;-81
2021/01/18 08:12:27;;;;;;;24.20;13.43;;;;;;;1.42;42.56;94081.31;4965322;28;20468;-77
2021/01/18 08:14:53;;;;;;;28.67;16.17;;;;;;;1.27;42.61;94077.31;4962609;28;20027;-82
2021/01/18 08:17:18;;;;;;;24.83;13.82;;;;;;;1.55;42.78;94070.66;4960742;28;20030;-82
2021/01/18 08:20:07;;;;;;;18.95;13.73;;;;;;;1.81;42.05;94078.00;4963979;28;20053;-82
2021/01/18 08:22:34;;;;;;;21.75;13.77;;;;;;;1.87;42.11;94058.88;4950037;28;20043;-78
2021/01/18 08:24:59;;;;;;;19.25;13.82;;;;;;;2.21;41.75;94070.25;4965219;28;20059;-81
2021/01/18 08:27:54;;;;;;;20.70;12.95;;;;;;;2.34;41.16;94067.41;4964347;28;20569;-82
2021/01/18 08:30:34;;;;;;;22.17;13.20;;;;;;;2.42;40.40;94055.81;4963928;28;20039;-78
2021/01/18 08:33:05;;;;;;;19.85;12.90;;;;;;;2.50;40.01;94060.66;4982778;28;20026;-81
2021/01/18 08:35:41;;;;;;;20.73;13.25;;;;;;;2.58;39.20;94071.53;4964532;28;20097;-76
2021/01/18 08:38:09;;;;;;;16.60;11.65;;;;;;;2.72;39.88;94077.25;4961822;28;20389;-82
2021/01/18 08:40:39;;;;;;;16.58;10.73;;;;;;;2.70;38.48;94068.88;4966457;28;20509;-79
2021/01/18 08:43:04;;;;;;;18.00;9.75;;;;;;;2.64;37.78;94075.00;4967041;28;20085;-79
2021/01/18 08:45:41;;;;;;;14.70;9.82;;;;;;;2.52;37.60;94074.28;4964614;28;20043;-81
2021/01/18 08:48:20;;;;;;;13.55;9.05;;;;;;;2.40;37.42;94076.09;4962820;28;20034;-82
2021/01/18 08:50:47;;;;;;;20.25;9.90;;;;;;;2.24;37.32;94069.81;4965376;28;20092;-81
2021/01/18 08:53:43;;;;;;;16.95;9.27;;;;;;;2.35;37.49;94060.34;4967805;28;20035;-81
2021/01/18 08:56:21;;;;;;;14.38;9.32;;;;;;;2.34;37.49;94064.00;4952896;28;20050;-81
2021/01/18 08:58:47;;;;;;;15.20;8.98;;;;;;;2.32;37.12;94060.84;4964764;28;20061;-80
2021/01/18 09:01:18;;;;;;;13.63;10.00;;;;;;;2.34;37.01;94071.84;4964712;28;20471;-78
2021/01/18 09:03:44;;;;;;;13.50;9.20;;;;;;;2.29;37.04;94067.31;4965774;28;20042;-81
2021/01/18 09:06:11;;;;;;;13.52;9.60;;;;;;;2.37;37.54;94073.97;4965689;28;20500;-80
2021/01/18 09:08:39;;;;;;;17.17;11.02;;;;;;;2.51;36.72;94067.47;4968603;28;21109;-81
2021/01/18 09:11:09;;;;;;;16.65;11.18;;;;;;;2.40;36.74;94074.28;4965189;28;20053;-81
2021/01/18 09:13:37;;;;;;;13.73;8.95;;;;;;;2.52;36.58;94082.09;4961088;28;22713;-80
2021/01/18 09:16:10;;;;;;;12.93;8.70;;;;;;;2.57;36.72;94074.38;4967602;28;20030;-81
2021/01/18 09:18:36;;;;;;;13.50;8.90;;;;;;;2.60;36.80;94074.69;4962127;28;20050;-81
2021/01/18 09:21:06;;;;;;;14.65;9.35;;;;;;;2.73;36.96;94073.63;4965006;28;20038;-81
2021/01/18 09:23:32;;;;;;;13.90;10.27;;;;;;;2.88;36.54;94063.44;4967152;28;20026;-78
2021/01/18 09:26:05;;;;;;;35.30;18.35;;;;;;;2.87;37.16;94069.72;4965593;28;20125;-81
2021/01/18 09:28:31;;;;;;;20.17;11.52;;;;;;;2.95;36.42;94071.13;4978127;28;20514;-81
2021/01/18 09:31:05;;;;;;;24.83;15.25;;;;;;;3.02;36.08;94064.75;4962641;28;20059;-81
2021/01/18 09:33:31;;;;;;;28.03;15.70;;;;;;;3.03;36.24;94057.69;4960410;28;20101;-81
2021/01/18 09:35:56;;;;;;;36.45;20.77;;;;;;;3.03;36.41;94045.44;4963366;28;20339;-81
2021/01/18 09:38:22;;;;;;;15.90;10.20;;;;;;;2.99;35.81;94056.59;4965710;28;20041;-80
2021/01/18 09:40:47;;;;;;;13.52;9.48;;;;;;;2.94;35.60;94036.41;4959745;28;20101;-80
2021/01/18 09:43:18;;;;;;;18.35;10.38;;;;;;;3.05;35.80;94038.19;4966537;28;20129;-78
2021/01/18 09:45:44;;;;;;;26.75;16.40;;;;;;;3.20;36.38;94047.28;4964326;28;20038;-80
2021/01/18 09:48:12;;;;;;;16.23;10.65;;;;;;;3.27;36.03;94038.28;4957794;28;20558;-80
2021/01/18 09:50:38;;;;;;;15.15;9.55;;;;;;;3.28;35.71;94036.44;4969310;28;20064;-79
2021/01/18 09:53:06;;;;;;;20.67;13.05;;;;;;;3.26;35.84;94030.66;4959481;28;20129;-79
2021/01/18 09:55:34;;;;;;;16.45;10.73;;;;;;;3.35;36.62;94040.47;4956535;28;20712;-73
2021/01/18 09:58:19;;;;;;;14.50;9.43;;;;;;;3.49;36.40;94033.09;4956759;28;20937;-73
2021/01/18 10:00:47;;;;;;;15.23;9.37;;;;;;;3.52;35.34;94024.03;4956360;28;20043;-74
2021/01/18 10:03:24;;;;;;;16.88;10.82;;;;;;;3.51;35.62;94025.84;4956890;28;20161;-74
2021/01/18 10:05:52;;;;;;;28.23;15.85;;;;;;;3.58;35.59;94018.59;4965580;28;20492;-74
2021/01/18 10:08:21;;;;;;;17.42;10.20;;;;;;;3.49;35.04;94005.16;4961400;28;20537;-73
2021/01/18 10:10:49;;;;;;;11.40;8.10;;;;;;;3.51;35.10;94011.97;4962530;28;20430;-74
2021/01/18 10:13:17;;;;;;;16.92;10.70;;;;;;;3.49;35.48;94004.38;4957090;28;20112;-74
2021/01/18 10:15:44;;;;;;;14.52;9.35;;;;;;;3.41;35.56;93991.72;4960946;28;20038;-74
2021/01/18 10:18:34;;;;;;;16.20;9.65;;;;;;;3.67;35.46;94014.56;4964543;28;20789;-74
2021/01/18 10:21:00;;;;;;;15.75;10.32;;;;;;;3.74;35.92;94004.72;4962037;28;20038;-74
2021/01/18 10:23:30;;;;;;;12.43;8.38;;;;;;;3.73;35.80;94008.38;4968450;28;20434;-74
2021/01/18 10:26:14;;;;;;;12.88;8.07;;;;;;;3.84;35.42;94007.47;4962088;28;20503;-74
2021/01/18 10:28:50;;;;;;;12.90;8.70;;;;;;;3.93;34.73;94000.81;4965507;28;20046;-73
2021/01/18 10:31:22;;;;;;;13.57;8.32;;;;;;;3.94;34.32;94012.06;4958341;28;20562;-74
2021/01/18 10:34:11;;;;;;;10.15;7.68;;;;;;;3.83;34.74;94007.72;4966528;28;20407;-74
2021/01/18 10:36:37;;;;;;;15.95;10.02;;;;;;;3.90;35.16;94001.28;4978004;28;20038;-74
2021/01/18 10:39:03;;;;;;;14.05;9.25;;;;;;;3.95;35.16;94007.63;4964721;28;20603;-74
2021/01/18 10:41:32;;;;;;;13.43;9.85;;;;;;;4.16;35.28;94014.66;4965872;28;20031;-73
2021/01/18 10:44:06;;;;;;;12.77;8.45;;;;;;;4.27;34.93;94000.69;4965568;28;20100;-74
2021/01/18 10:46:32;;;;;;;14.27;9.43;;;;;;;4.26;34.95;94004.31;4959041;28;20057;-74
2021/01/18 10:48:58;;;;;;;13.27;8.43;;;;;;;4.30;35.15;94000.22;4967809;28;20050;-74
2021/01/18 10:51:25;;;;;;;20.15;11.43;;;;;;;4.32;34.99;94000.72;4962773;28;20133;-74
2021/01/18 10:53:56;;;;;;;13.40;9.02;;;;;;;3.95;34.79;94002.38;4953568;28;20782;-74
2021/01/18 10:56:21;;;;;;;21.63;11.82;;;;;;;4.05;35.05;93989.44;4962926;28;20027;-74
2021/01/18 10:58:56;;;;;;;46.75;23.95;;;;;;;4.11;35.13;94006.75;4963037;28;20447;-74
2021/01/18 11:01:21;;;;;;;20.05;10.27;;;;;;;4.09;34.57;94003.59;4960357;28;20519;-74
2021/01/18 11:03:47;;;;;;;15.43;10.68;;;;;;;4.20;35.15;94008.69;4962711;28;20073;-74
2021/01/18 11:06:14;;;;;;;21.10;12.30;;;;;;;4.27;35.60;93995.44;4959359;28;20074;-73
2021/01/18 11:08:40;;;;;;;21.88;13.05;;;;;;;4.51;34.96;93996.75;4973144;28;20029;-74
2021/01/18 11:11:26;;;;;;;16.85;11.05;;;;;;;4.50;34.60;93979.47;4958440;28;20165;-74
2021/01/18 11:14:00;;;;;;;15.48;10.82;;;;;;;4.57;35.01;93993.16;4965722;28;20045;-73
2021/01/18 11:16:26;;;;;;;21.00;11.05;;;;;;;4.62;34.66;93993.22;4961289;28;20266;-73
2021/01/18 11:18:58;;;;;;;25.17;13.15;;;;;;;4.60;34.14;93991.88;4966678;28;20393;-74
2021/01/18 11:21:26;;;;;;;12.70;8.75;;;;;;;4.39;34.44;94001.34;4963788;28;20078;-73
2021/01/18 11:23:51;;;;;;;15.25;9.13;;;;;;;4.50;34.87;93986.53;4966011;28;20528;-74
2021/01/18 11:26:17;;;;;;;14.77;9.77;;;;;;;4.64;34.71;93985.88;4965408;28;20014;-73
2021/01/18 11:28:42;;;;;;;20.05;10.05;;;;;;;4.79;33.92;93983.44;4967209;28;20063;-73
2021/01/18 11:31:07;;;;;;;22.70;11.45;;;;;;;4.80;33.43;93979.78;4966318;28;20067;-73
2021/01/18 11:33:33;;;;;;;24.13;11.75;;;;;;;4.89;34.16;93976.72;4961956;28;20047;-73
2021/01/18 11:36:00;;;;;;;16.85;10.95;;;;;;;4.72;34.01;93988.09;4958211;28;20029;-73
2021/01/18 11:38:25;;;;;;;16.48;8.65;;;;;;;4.44;33.34;93979.69;4968724;28;20039;-73
2021/01/18 11:40:51;;;;;;;13.43;10.00;;;;;;;4.49;33.81;93992.81;4964713;28;20045;-72